createdAt,value
2022-08-04T00:02:15.771Z,0
2022-08-04T00:07:17.204Z,0
2022-08-04T00:12:18.736Z,0
2022-08-04T00:17:20.480Z,0
2022-08-04T00:22:22.734Z,0
2022-08-04T00:27:24.150Z,0.88715
2022-08-04T00:32:34.135Z,0
2022-08-04T00:37:36.107Z,0
2022-08-04T00:42:37.546Z,0
2022-08-04T00:47:51.178Z,0
2022-08-04T00:52:52.932Z,0
2022-08-04T00:57:55.732Z,0
2022-08-04T01:02:57.401Z,0.88715
2022-08-04T01:07:58.865Z,0
2022-08-04T01:13:00.447Z,0
2022-08-04T01:18:02.119Z,0
2022-08-04T01:23:03.590Z,0.88715
2022-08-04T01:28:05.049Z,0
2022-08-04T01:33:08.100Z,0.88715
2022-08-04T01:38:18.311Z,0.88715
2022-08-04T01:43:23.160Z,0
2022-08-04T01:48:24.932Z,0.88715
2022-08-04T01:53:26.378Z,0
2022-08-04T01:58:27.872Z,0
2022-08-04T02:04:20.873Z,0
2022-08-04T02:09:24.778Z,0
2022-08-04T02:14:26.260Z,0
2022-08-04T02:19:28.134Z,0
2022-08-04T02:24:29.795Z,0
2022-08-04T02:29:32.181Z,0
2022-08-04T02:34:34.394Z,0
2022-08-04T02:39:41.514Z,0.88715
2022-08-04T02:44:50.368Z,0.88715
2022-08-04T02:49:52.064Z,0.88715
2022-08-04T02:54:54.641Z,0
2022-08-04T02:59:56.406Z,0
2022-08-04T03:04:58.119Z,0.88715
2022-08-04T03:09:59.698Z,0
2022-08-04T03:15:01.362Z,0
2022-08-04T03:20:03.004Z,0
2022-08-04T03:25:04.558Z,0
2022-08-04T03:30:06.065Z,0
2022-08-04T03:35:07.863Z,0
2022-08-04T03:40:10.695Z,0
2022-08-04T03:45:23.032Z,0.88715
2022-08-04T03:50:25.828Z,0.88715
2022-08-04T03:55:27.461Z,0.88715
2022-08-04T04:00:28.996Z,0
2022-08-04T04:05:32.981Z,0.88715
2022-08-04T04:10:43.306Z,0
2022-08-04T04:15:48.223Z,0.88715
2022-08-04T04:20:51.678Z,0.88715
2022-08-04T04:25:53.244Z,0
2022-08-04T04:30:54.688Z,0.88885
2022-08-04T04:35:56.434Z,2.50815
2022-08-04T04:40:57.963Z,1.53075
2022-08-04T04:45:59.431Z,3.85445
2022-08-04T04:51:01.185Z,4.22335
2022-08-04T04:56:02.744Z,10.21705
2022-08-04T05:01:04.312Z,16.8934
2022-08-04T05:06:06.359Z,23.69905
2022-08-04T05:11:07.920Z,32.2009
2022-08-04T05:16:09.478Z,42.28865
2022-08-04T05:21:11.100Z,63.09165
2022-08-04T05:26:12.611Z,88.118
2022-08-04T05:31:14.101Z,120.0223
2022-08-04T05:36:19.177Z,156.4637
2022-08-04T05:41:32.137Z,199.5453
2022-08-04T05:46:54.562Z,239.23635
2022-08-04T05:51:56.334Z,178.94945
2022-08-04T05:56:57.765Z,109.82425
2022-08-04T06:01:59.329Z,82.2346
2022-08-04T06:07:01.024Z,118.8433
2022-08-04T06:12:04.380Z,190.01275
2022-08-04T06:17:06.220Z,261.0339
2022-08-04T06:23:36.049Z,364.32825
2022-08-04T06:28:55.428Z,485.62455
2022-08-04T06:33:56.871Z,560.5173
2022-08-04T06:38:58.951Z,588.32755
2022-08-04T06:44:00.457Z,623.29335
2022-08-04T06:49:02.287Z,668.6245
2022-08-04T06:54:03.733Z,701.1753
2022-08-04T06:59:05.184Z,728.15645
2022-08-04T07:04:06.936Z,730.36985
2022-08-04T07:09:08.754Z,776.4388
2022-08-04T07:14:10.367Z,794.4389
2022-08-04T07:19:14.780Z,827.2293
2022-08-04T07:24:20.116Z,845.04495
2022-08-04T07:29:21.590Z,874.16535
2022-08-04T07:34:23.051Z,889.2884
2022-08-04T07:39:28.666Z,924.10775
2022-08-04T07:44:30.771Z,946.3312
2022-08-04T07:49:54.207Z,986.53575
2022-08-04T07:54:59.276Z,1000.75555
2022-08-04T08:00:01.070Z,1020.7846
2022-08-04T08:05:02.821Z,1050.8291
2022-08-04T08:10:04.446Z,1083.4522
2022-08-04T08:15:05.908Z,1115.57895
2022-08-04T08:20:09.708Z,1164.04575
2022-08-04T08:25:11.280Z,1154.6045
2022-08-04T08:30:12.944Z,1203.4402
2022-08-04T08:35:15.869Z,1252.7741
2022-08-04T08:40:17.839Z,1272.56355
2022-08-04T08:45:33.896Z,1304.89375
2022-08-04T08:50:35.367Z,1340.76465
2022-08-04T08:55:36.972Z,1389.4159
2022-08-04T09:00:38.535Z,1422.3736
2022-08-04T09:05:40.205Z,1448.52565
2022-08-04T09:10:42.238Z,1508.99885
2022-08-04T09:15:43.814Z,1591.3266
2022-08-04T09:20:45.304Z,1679.85705
2022-08-04T09:25:47.005Z,1108.4994
2022-08-04T09:30:48.670Z,1630.67885
2022-08-04T09:35:50.169Z,877.61475
2022-08-04T09:40:53.176Z,1787.3613
2022-08-04T09:45:56.930Z,1842.0387
2022-08-04T09:50:58.380Z,1550.19425
2022-08-04T09:56:03.003Z,1915.2181
2022-08-04T10:01:05.135Z,2057.5797
2022-08-04T10:06:06.733Z,2057.42955
2022-08-04T10:11:09.038Z,2120.8368
2022-08-04T10:16:10.511Z,2209.434
2022-08-04T10:21:15.513Z,2159.6932
2022-08-04T10:26:17.518Z,2151.5241
2022-08-04T10:31:18.975Z,2173.6164
2022-08-04T10:36:20.664Z,1872.2811
2022-08-04T10:41:22.497Z,876.66795
2022-08-04T10:46:24.010Z,2268.31575
2022-08-04T10:51:25.695Z,892.00975
2022-08-04T10:56:27.346Z,2385.24225
2022-08-04T11:02:00.838Z,1366.2781
2022-08-04T11:07:04.770Z,2120.2779
2022-08-04T11:12:07.333Z,1027.0448
2022-08-04T11:17:09.046Z,2323.59005
2022-08-04T11:22:10.553Z,1125.64215
2022-08-04T11:27:12.433Z,2346.1977
2022-08-04T11:32:13.987Z,2438.26145
2022-08-04T11:37:15.958Z,2026.9156
2022-08-04T11:42:17.849Z,1165.0899
2022-08-04T11:47:19.523Z,2469.02105
2022-08-04T11:52:21.752Z,2428.18715
2022-08-04T11:57:25.620Z,1069.97995
2022-08-04T12:02:38.460Z,2560.91935
2022-08-04T12:07:41.666Z,2594.74045
2022-08-04T12:12:43.825Z,941.27135
2022-08-04T12:17:52.672Z,2341.19485
2022-08-04T12:22:55.373Z,1154.4261
2022-08-04T12:27:57.628Z,2419.6436
2022-08-04T12:32:59.481Z,2454.3508
2022-08-04T12:38:00.936Z,2372.9643
2022-08-04T12:43:02.829Z,869.47255
2022-08-04T12:48:04.384Z,2355.68485
2022-08-04T12:53:05.852Z,2238.48445
2022-08-04T12:58:07.345Z,2274.81555
2022-08-04T13:03:10.223Z,2265.79465
2022-08-04T13:08:13.414Z,2183.7445
2022-08-04T13:13:15.074Z,1904.80735
2022-08-04T13:18:16.736Z,851.14155
2022-08-04T13:23:21.720Z,2112.63205
2022-08-04T13:28:23.759Z,2006.2192
2022-08-04T13:33:25.245Z,1996.2969
2022-08-04T13:38:26.851Z,814.8466
2022-08-04T13:44:16.792Z,1762.3943
2022-08-04T13:49:43.073Z,1737.20065
2022-08-04T13:55:02.774Z,1685.2293
2022-08-04T14:00:04.735Z,1613.34105
2022-08-04T14:05:06.403Z,1496.36125
2022-08-04T14:10:20.737Z,1500.307
2022-08-04T14:15:22.622Z,1418.7189
2022-08-04T14:20:24.335Z,1233.7243
2022-08-04T14:25:30.255Z,1136.958
2022-08-04T14:30:37.681Z,1062.9305
2022-08-04T14:35:50.147Z,973.19045
2022-08-04T14:40:52.560Z,783.9725
2022-08-04T14:45:55.472Z,637.8913
2022-08-04T14:50:57.495Z,521.11495
2022-08-04T14:55:59.247Z,427.5756
2022-08-04T15:01:01.241Z,332.80025
2022-08-04T15:06:15.286Z,288.1425
2022-08-04T15:11:23.452Z,205.6757
2022-08-04T15:16:25.928Z,158.09315
2022-08-04T15:21:27.561Z,131.93925
2022-08-04T15:26:29.681Z,110.157
2022-08-04T15:32:06.536Z,87.06645
2022-08-04T15:37:10.723Z,51.399
2022-08-04T15:42:17.489Z,28.2723
2022-08-04T15:47:23.114Z,12.8545
2022-08-04T15:52:25.170Z,5.03685
2022-08-04T15:57:33.940Z,3.37765
2022-08-04T16:02:36.044Z,1.42215
2022-08-04T16:07:38.066Z,0.4148
2022-08-04T16:12:53.814Z,0
2022-08-04T16:17:56.649Z,0.88715
2022-08-04T16:22:58.402Z,0.88715
2022-08-04T16:28:00.315Z,0.88715
2022-08-04T16:33:02.490Z,0
2022-08-04T16:38:04.182Z,0
2022-08-04T16:43:05.935Z,0
2022-08-04T16:48:08.241Z,0
2022-08-04T16:53:10.024Z,0
2022-08-04T16:58:53.016Z,0
2022-08-04T17:03:57.765Z,0.88715
2022-08-04T17:08:59.604Z,0.88715
2022-08-04T17:14:05.403Z,0.88715
2022-08-04T17:19:24.303Z,0
2022-08-04T17:24:28.410Z,0
2022-08-04T17:29:43.966Z,0
2022-08-04T17:34:46.951Z,0
2022-08-04T17:39:50.762Z,0
2022-08-04T17:44:52.604Z,0
2022-08-04T17:49:54.932Z,0
2022-08-04T17:54:57.535Z,0.88715
2022-08-04T18:00:04.436Z,0
2022-08-04T18:05:11.879Z,0.88715
2022-08-04T18:10:31.087Z,0
2022-08-04T18:15:44.112Z,0
2022-08-04T18:20:50.100Z,0.88715
2022-08-04T18:25:52.424Z,0
2022-08-04T18:30:56.294Z,0
2022-08-04T18:36:32.664Z,0
2022-08-04T18:42:01.416Z,0
2022-08-04T18:47:19.534Z,0
2022-08-04T18:52:31.989Z,0
2022-08-04T18:57:59.001Z,0
2022-08-04T19:03:02.788Z,0
2022-08-04T19:08:33.530Z,0.88715
2022-08-04T19:13:36.998Z,0
2022-08-04T19:18:39.089Z,0.88715
2022-08-04T19:24:10.860Z,0
2022-08-04T19:29:37.125Z,0
2022-08-04T19:34:39.218Z,0
2022-08-04T19:39:41.050Z,0
2022-08-04T19:44:43.835Z,0.88715
2022-08-04T19:50:03.760Z,0
2022-08-04T19:55:10.038Z,0
2022-08-04T20:00:13.258Z,0
2022-08-04T20:05:17.986Z,0
2022-08-04T20:10:52.513Z,0
2022-08-04T20:15:58.086Z,0.88715
2022-08-04T20:21:00.124Z,0
2022-08-04T20:26:02.676Z,0
2022-08-04T20:31:05.206Z,0.88715
2022-08-04T20:36:09.748Z,0
2022-08-04T20:41:11.822Z,0
2022-08-04T20:46:18.189Z,0.88715
2022-08-04T20:51:32.087Z,0
2022-08-04T20:56:35.780Z,0
2022-08-04T21:01:49.000Z,0
2022-08-04T21:06:51.557Z,0
2022-08-04T21:11:53.644Z,0.88715
2022-08-04T21:16:56.458Z,0
2022-08-04T21:21:58.705Z,0
2022-08-04T21:27:01.014Z,0
2022-08-04T21:32:04.077Z,0
2022-08-04T21:37:09.253Z,0
2022-08-04T21:42:28.384Z,0
2022-08-04T21:47:46.361Z,0
2022-08-04T21:52:51.474Z,0
2022-08-04T21:57:54.085Z,0
2022-08-04T22:02:55.941Z,0
2022-08-04T22:07:58.421Z,0
2022-08-04T22:13:06.715Z,0
2022-08-04T22:18:12.992Z,0
2022-08-04T22:23:16.861Z,0
2022-08-04T22:28:21.254Z,0
2022-08-04T22:33:54.978Z,0
2022-08-04T22:39:06.484Z,0
2022-08-04T22:44:13.604Z,0.88715
2022-08-04T22:49:17.310Z,0
2022-08-04T22:54:18.956Z,0.88715
2022-08-04T22:59:21.446Z,0.88715
2022-08-04T23:04:23.142Z,0
2022-08-04T23:09:49.159Z,0
2022-08-04T23:14:53.039Z,0
2022-08-04T23:19:57.868Z,0
2022-08-04T23:25:00.441Z,0
2022-08-04T23:30:05.720Z,0
2022-08-04T23:35:07.149Z,0
2022-08-04T23:40:32.278Z,0
2022-08-04T23:46:04.022Z,0.88715
2022-08-04T23:51:15.111Z,0
2022-08-04T23:56:19.678Z,0
